Time;durP1;ratioP1;P1;durP2;ratioP2;P2;SDS_P1;SDS_P2;PMS_P1;PMS_P2;Temp;Humidity;BMP_temperature;BMP_pressure;BME280_temperature;BME280_humidity;BME280_pressure;Samples;Min_cycle;Max_cycle;Signal;HPM_P1;HPM_P2
2021/01/23 00:02:00;;;;;;;20.83;9.33;;;204.80;2150.40;;;;;;4918515;29;20032;-82
2021/01/23 00:04:25;;;;;;;15.50;7.47;;;204.80;2124.80;;;;;;4947376;29;20063;-81
2021/01/23 00:06:51;;;;;;;30.50;12.80;;;204.80;2124.80;;;;;;4935551;29;20039;-82
2021/01/23 00:09:17;;;;;;;17.10;8.83;;;204.80;2124.80;;;;;;4934876;28;20134;-83
2021/01/23 00:11:42;;;;;;;16.90;8.40;;;204.80;2124.80;;;;;;4934882;29;20034;-82
2021/01/23 00:14:08;;;;;;;12.43;8.43;;;204.80;2124.80;;;;;;4934569;29;20046;-83
2021/01/23 00:16:34;;;;;;;14.67;9.17;;;180.10;2124.80;;;;;;4935024;29;20359;-83
2021/01/23 00:18:59;;;;;;;23.57;13.00;;;180.10;2124.80;;;;;;4936046;29;20083;-88
2021/01/23 00:21:25;;;;;;;25.00;13.67;;;180.10;2124.80;;;;;;4936570;29;20035;-83
2021/01/23 00:23:51;;;;;;;28.57;15.43;;;180.10;2124.80;;;;;;4936517;28;20035;-83
2021/01/23 00:26:16;;;;;;;25.73;14.23;;;180.10;2124.80;;;;;;4937280;29;20096;-83
2021/01/23 00:28:42;;;;;;;25.97;14.80;;;179.90;2124.80;;;;;;4937680;29;20532;-83
2021/01/23 00:31:07;;;;;;;21.93;12.77;;;179.80;2150.40;;;;;;4937032;29;20433;-81
2021/01/23 00:33:33;;;;;;;22.20;14.60;;;179.80;2150.40;;;;;;4936088;29;20036;-83
2021/01/23 00:35:59;;;;;;;20.73;11.07;;;179.70;2150.40;;;;;;4937880;29;20480;-83
2021/01/23 00:38:25;;;;;;;21.03;12.07;;;179.80;2150.40;;;;;;4937501;29;20062;-82
2021/01/23 00:40:50;;;;;;;19.63;10.40;;;179.80;2150.40;;;;;;4954199;28;20111;-83
2021/01/23 00:43:16;;;;;;;14.87;8.80;;;179.90;2124.80;;;;;;4936620;29;20489;-82
2021/01/23 00:45:42;;;;;;;21.47;10.23;;;179.80;2150.40;;;;;;4937222;29;20445;-83
2021/01/23 00:48:09;;;;;;;21.60;10.63;;;179.70;2150.40;;;;;;4936427;29;20031;-82
2021/01/23 00:50:34;;;;;;;18.77;9.67;;;179.70;2150.40;;;;;;4952350;28;20031;-83
2021/01/23 00:53:00;;;;;;;17.40;8.90;;;179.60;2150.40;;;;;;4939129;29;20027;-82
2021/01/23 00:55:26;;;;;;;18.90;10.20;;;179.60;2150.40;;;;;;4939540;28;20470;-83
2021/01/23 00:57:52;;;;;;;17.87;10.17;;;179.70;2150.40;;;;;;4938531;29;20170;-82
2021/01/23 01:00:18;;;;;;;18.80;11.03;;;179.70;2150.40;;;;;;4941160;29;20042;-82
2021/01/23 01:02:43;;;;;;;17.37;9.00;;;179.60;2150.40;;;;;;4939790;29;20029;-83
2021/01/23 01:05:10;;;;;;;20.70;11.57;;;179.70;2124.80;;;;;;4940108;29;20051;-85
2021/01/23 01:07:35;;;;;;;20.07;11.07;;;179.70;2150.40;;;;;;4954551;29;20121;-84
2021/01/23 01:10:02;;;;;;;16.80;9.03;;;179.60;2150.40;;;;;;4938883;29;20118;-82
2021/01/23 01:12:28;;;;;;;22.67;13.17;;;179.70;2124.80;;;;;;4938141;29;20028;-82
2021/01/23 01:14:54;;;;;;;22.07;10.13;;;179.70;2124.80;;;;;;4939621;29;20035;-83
2021/01/23 01:17:19;;;;;;;19.73;9.90;;;179.70;2124.80;;;;;;4938089;29;20036;-83
2021/01/23 01:19:45;;;;;;;17.80;9.90;;;179.90;2124.80;;;;;;4939018;29;20023;-82
2021/01/23 01:22:11;;;;;;;17.30;8.87;;;179.90;2099.20;;;;;;4941457;29;20023;-82
2021/01/23 01:24:36;;;;;;;19.03;11.67;;;180.00;2099.20;;;;;;4938625;29;20046;-81
2021/01/23 01:27:02;;;;;;;24.07;11.97;;;180.00;2099.20;;;;;;4938372;29;20070;-83
2021/01/23 01:29:28;;;;;;;15.67;8.97;;;180.00;2099.20;;;;;;4937804;29;20023;-83
2021/01/23 01:31:53;;;;;;;13.20;7.97;;;180.00;2099.20;;;;;;4939732;29;20429;-82
2021/01/23 01:34:19;;;;;;;21.53;12.03;;;180.00;2099.20;;;;;;4937965;29;20515;-83
2021/01/23 01:36:45;;;;;;;18.53;11.27;;;180.10;2073.60;;;;;;4938617;29;20043;-82
2021/01/23 01:39:10;;;;;;;50.97;29.57;;;180.10;2073.60;;;;;;4939976;29;20039;-83
2021/01/23 01:41:37;;;;;;;30.87;19.47;;;180.00;2073.60;;;;;;4936279;29;20086;-84
2021/01/23 01:44:05;;;;;;;31.00;17.73;;;180.00;2073.60;;;;;;4953400;29;20023;-83
2021/01/23 01:46:30;;;;;;;33.20;15.90;;;179.90;2099.20;;;;;;4938583;29;20039;-83
2021/01/23 01:48:59;;;;;;;35.03;16.40;;;179.90;2099.20;;;;;;4936516;29;20039;-83
2021/01/23 01:51:25;;;;;;;21.13;12.33;;;179.90;2099.20;;;;;;4938135;29;20031;-84
2021/01/23 01:53:52;;;;;;;27.13;12.53;;;179.80;2099.20;;;;;;4955780;29;20030;-83
2021/01/23 01:56:18;;;;;;;28.33;12.77;;;179.80;2099.20;;;;;;4953243;29;20031;-84
2021/01/23 01:58:44;;;;;;;18.37;9.10;;;179.80;2099.20;;;;;;4937351;29;20481;-82
2021/01/23 02:01:10;;;;;;;20.93;10.10;;;179.90;2099.20;;;;;;4937782;29;20029;-82
2021/01/23 02:03:49;;;;;;;20.73;11.03;;;179.80;2099.20;;;;;;4938724;28;20035;-82
2021/01/23 02:06:40;;;;;;;22.50;9.67;;;179.90;2099.20;;;;;;4955291;29;20405;-83
2021/01/23 02:09:06;;;;;;;16.37;7.70;;;179.90;2099.20;;;;;;4937002;29;20366;-84
2021/01/23 02:11:49;;;;;;;19.23;9.03;;;179.90;2099.20;;;;;;4936889;29;20027;-83
2021/01/23 02:14:32;;;;;;;;;;;179.90;2073.60;;;;;;4936887;29;20047;-82
2021/01/23 02:17:07;;;;;;;26.87;15.77;;;180.00;2073.60;;;;;;4955069;29;19910;-82
2021/01/23 02:20:01;;;;;;;33.57;15.77;;;180.00;2073.60;;;;;;4951201;29;20505;-84
2021/01/23 02:23:01;;;;;;;28.07;15.63;;;180.00;2073.60;;;;;;4942900;29;20039;-83
2021/01/23 02:25:28;;;;;;;20.83;12.87;;;179.90;2073.60;;;;;;4935866;29;20027;-86
2021/01/23 02:28:12;;;;;;;14.53;9.97;;;180.00;2073.60;;;;;;4951772;29;20031;-82
2021/01/23 02:31:03;;;;;;;17.23;10.10;;;180.00;2073.60;;;;;;4937286;29;20087;-84
2021/01/23 02:33:29;;;;;;;27.70;9.90;;;180.00;2073.60;;;;;;4857173;29;20120;-84
2021/01/23 02:35:55;;;;;;;24.90;10.17;;;179.90;2073.60;;;;;;4842079;29;20041;-84
2021/01/23 02:38:21;;;;;;;17.50;9.47;;;179.90;2073.60;;;;;;4841742;29;20044;-85
2021/01/23 02:40:48;;;;;;;21.83;11.00;;;179.90;2073.60;;;;;;4841473;29;20132;-83
2021/01/23 02:43:13;;;;;;;17.57;8.90;;;179.90;2099.20;;;;;;4842527;29;20026;-83
2021/01/23 02:45:39;;;;;;;23.50;12.50;;;179.80;2099.20;;;;;;4841823;29;20094;-85
2021/01/23 02:48:05;;;;;;;18.13;9.90;;;179.80;2099.20;;;;;;4841914;29;20037;-83
2021/01/23 02:50:31;;;;;;;19.27;9.57;;;179.90;2099.20;;;;;;4841001;29;20537;-82
2021/01/23 02:53:17;;;;;;;21.20;9.50;;;179.80;2099.20;;;;;;4857741;29;20061;-85
2021/01/23 02:55:52;;;;;;;19.77;10.87;;;179.70;2099.20;;;;;;4857000;29;20057;-83
2021/01/23 02:58:21;;;;;;;20.13;9.27;;;179.80;2099.20;;;;;;4842413;29;20547;-83
2021/01/23 03:00:48;;;;;;;18.27;9.63;;;179.70;2099.20;;;;;;4842045;29;20060;-83
2021/01/23 03:03:17;;;;;;;18.93;8.63;;;179.70;2124.80;;;;;;4840082;29;20892;-84
2021/01/23 03:05:43;;;;;;;14.93;9.27;;;179.80;2099.20;;;;;;4823166;29;20077;-83
2021/01/23 03:08:13;;;;;;;20.60;10.00;;;179.80;2099.20;;;;;;4824034;29;20041;-87
2021/01/23 03:10:41;;;;;;;16.07;9.27;;;179.80;2099.20;;;;;;4878136;29;20082;-84
2021/01/23 03:13:08;;;;;;;27.33;10.40;;;179.70;2099.20;;;;;;4933686;29;20502;-82
2021/01/23 03:15:35;;;;;;;18.87;9.77;;;179.80;2099.20;;;;;;4916803;29;20079;-82
2021/01/23 03:18:01;;;;;;;20.50;9.93;;;179.90;2099.20;;;;;;4934254;29;20023;-82
2021/01/23 03:20:27;;;;;;;18.27;8.47;;;179.90;2099.20;;;;;;4916695;29;20079;-82
2021/01/23 03:22:54;;;;;;;11.33;8.00;;;179.90;2073.60;;;;;;4932202;29;20026;-83
2021/01/23 03:25:21;;;;;;;18.13;8.20;;;179.90;2099.20;;;;;;4932498;29;20055;-84
2021/01/23 03:27:46;;;;;;;18.07;7.27;;;180.00;2099.20;;;;;;4932943;29;20032;-83
2021/01/23 03:30:13;;;;;;;16.63;8.13;;;179.90;2073.60;;;;;;4916478;29;20055;-84
2021/01/23 03:32:38;;;;;;;24.33;9.23;;;179.90;2073.60;;;;;;4931230;29;20394;-84
2021/01/23 03:35:05;;;;;;;19.23;10.70;;;179.90;2073.60;;;;;;4916515;29;20043;-82
2021/01/23 03:37:32;;;;;;;15.13;7.80;;;180.00;2073.60;;;;;;4917018;29;20035;-82
2021/01/23 03:39:58;;;;;;;21.53;10.23;;;180.00;2073.60;;;;;;4917622;29;20026;-82
2021/01/23 03:42:24;;;;;;;17.63;10.53;;;180.00;2073.60;;;;;;4916279;29;20036;-82
2021/01/23 03:44:50;;;;;;;23.13;11.97;;;179.90;2099.20;;;;;;4915946;29;20118;-82
2021/01/23 03:47:15;;;;;;;18.60;10.03;;;179.90;2099.20;;;;;;5420244;23;20035;-85
2021/01/23 03:49:49;;;;;;;17.50;9.30;;;180.10;2073.60;;;;;;3981217;23;20234;-80
2021/01/23 03:52:15;;;;;;;14.33;7.60;;;180.10;2073.60;;;;;;4939026;28;20497;-83
2021/01/23 03:54:42;;;;;;;14.33;6.67;;;204.80;2073.60;;;;;;4967664;28;20093;-83
2021/01/23 03:57:11;;;;;;;15.37;6.87;;;204.80;2073.60;;;;;;4953978;28;20120;-83
2021/01/23 03:59:38;;;;;;;12.13;6.17;;;204.80;2048.00;;;;;;4954829;28;20492;-81
2021/01/23 04:02:04;;;;;;;9.13;5.83;;;204.80;2048.00;;;;;;4954943;28;20038;-82
2021/01/23 04:04:30;;;;;;;13.83;9.20;;;204.80;2048.00;;;;;;4955304;28;20730;-83
2021/01/23 04:06:56;;;;;;;17.87;7.33;;;180.00;2073.60;;;;;;4955624;28;20027;-82
2021/01/23 04:09:22;;;;;;;14.23;7.13;;;180.00;2073.60;;;;;;4955849;28;20068;-83
2021/01/23 04:11:49;;;;;;;13.47;6.87;;;180.00;2073.60;;;;;;4955388;28;20436;-82
2021/01/23 04:14:15;;;;;;;14.77;7.53;;;180.00;2073.60;;;;;;4955701;28;20035;-81
2021/01/23 04:16:40;;;;;;;24.77;9.10;;;179.90;2073.60;;;;;;4955980;28;20102;-82
2021/01/23 04:19:06;;;;;;;25.17;12.63;;;179.90;2073.60;;;;;;4954802;28;20110;-82
2021/01/23 04:21:32;;;;;;;26.63;13.97;;;179.80;2099.20;;;;;;4953896;28;20033;-83
2021/01/23 04:23:58;;;;;;;28.83;14.60;;;179.90;2073.60;;;;;;4953437;28;20436;-83
2021/01/23 04:26:24;;;;;;;25.17;14.47;;;179.70;2099.20;;;;;;4957000;28;20030;-82
2021/01/23 04:28:50;;;;;;;25.37;14.53;;;179.80;2099.20;;;;;;4958591;28;20026;-82
2021/01/23 04:31:15;;;;;;;22.13;11.97;;;179.70;2099.20;;;;;;4957522;28;20097;-82
2021/01/23 04:33:41;;;;;;;22.37;11.37;;;179.60;2099.20;;;;;;4958491;28;20038;-84
2021/01/23 04:36:07;;;;;;;20.50;10.80;;;179.50;2124.80;;;;;;4957853;28;20039;-82
2021/01/23 04:38:33;;;;;;;17.80;9.37;;;179.50;2124.80;;;;;;4958494;28;20090;-82
2021/01/23 04:40:59;;;;;;;22.27;9.13;;;179.60;2099.20;;;;;;4957043;28;20489;-82
2021/01/23 04:43:25;;;;;;;20.77;9.23;;;179.60;2099.20;;;;;;4957554;28;20836;-82
2021/01/23 04:45:52;;;;;;;16.47;8.47;;;179.70;2099.20;;;;;;4957946;28;20046;-82
2021/01/23 04:48:18;;;;;;;17.20;8.67;;;179.60;2099.20;;;;;;4958415;28;20038;-82
2021/01/23 04:50:47;;;;;;;18.90;7.23;;;179.70;2099.20;;;;;;4973605;28;20074;-82
2021/01/23 04:53:14;;;;;;;19.07;7.80;;;179.70;2073.60;;;;;;4958492;28;20035;-84
2021/01/23 04:55:40;;;;;;;20.50;8.77;;;179.70;2099.20;;;;;;4957782;28;20035;-83
2021/01/23 04:58:06;;;;;;;18.13;8.20;;;179.70;2099.20;;;;;;4957781;28;20030;-82
2021/01/23 05:00:32;;;;;;;15.27;8.70;;;179.70;2073.60;;;;;;4957058;28;20404;-81
2021/01/23 05:03:02;;;;;;;18.50;9.07;;;179.70;2073.60;;;;;;4958071;28;20392;-83
2021/01/23 05:05:28;;;;;;;20.30;9.23;;;179.80;2099.20;;;;;;4957744;28;20444;-83
2021/01/23 05:08:11;;;;;;;20.77;10.27;;;179.70;2099.20;;;;;;4957459;28;20027;-82
2021/01/23 05:10:37;;;;;;;25.53;11.37;;;179.70;2099.20;;;;;;4974672;28;20054;-81
2021/01/23 05:13:17;;;;;;;27.10;14.43;;;179.70;2099.20;;;;;;4957475;28;20261;-82
2021/01/23 05:15:45;;;;;;;23.87;12.37;;;179.60;2099.20;;;;;;4957079;28;20043;-82
2021/01/23 05:18:13;;;;;;;30.93;11.63;;;179.60;2099.20;;;;;;4957523;28;20023;-82
2021/01/23 05:20:46;;;;;;;21.03;11.43;;;179.60;2099.20;;;;;;4956681;28;20042;-82
2021/01/23 05:23:22;;;;;;;26.80;12.87;;;179.60;2099.20;;;;;;4957684;28;20034;-83
2021/01/23 05:26:01;;;;;;;27.70;14.60;;;179.50;2099.20;;;;;;4956585;28;20428;-82
2021/01/23 05:28:34;;;;;;;37.07;17.73;;;179.50;2099.20;;;;;;4974376;28;20023;-83
2021/01/23 05:31:02;;;;;;;45.50;25.80;;;179.50;2099.20;;;;;;4956630;28;20026;-83
2021/01/23 05:33:30;;;;;;;46.27;27.93;;;179.40;2124.80;;;;;;4957532;28;20042;-82
2021/01/23 05:36:06;;;;;;;56.10;32.47;;;179.20;2124.80;;;;;;4955995;28;20026;-82
2021/01/23 05:38:34;;;;;;;61.27;35.47;;;179.20;2150.40;;;;;;4955389;28;20041;-82
2021/01/23 05:41:08;;;;;;;34.53;18.70;;;154.40;2176.00;;;;;;4958042;28;20034;-83
2021/01/23 05:43:41;;;;;;;45.97;28.40;;;154.40;2150.40;;;;;;4956798;28;20112;-82
2021/01/23 05:46:15;;;;;;;40.97;25.50;;;154.40;2150.40;;;;;;4958131;28;20026;-83
2021/01/23 05:48:47;;;;;;;65.73;37.97;;;154.30;2176.00;;;;;;4958235;28;20443;-83
2021/01/23 05:51:14;;;;;;;68.30;35.20;;;154.30;2176.00;;;;;;4957375;28;20043;-82
2021/01/23 05:53:40;;;;;;;65.97;34.70;;;154.30;2176.00;;;;;;4958472;28;20468;-84
2021/01/23 05:56:06;;;;;;;62.47;34.60;;;154.30;2176.00;;;;;;4951909;29;20031;-82
2021/01/23 05:58:34;;;;;;;144.67;83.50;;;154.30;2176.00;;;;;;4937481;29;20029;-84
2021/01/23 06:01:03;;;;;;;127.13;74.33;;;154.30;2201.60;;;;;;4936424;29;20027;-83
2021/01/23 06:03:43;;;;;;;104.37;58.67;;;154.30;2176.00;;;;;;4937049;29;20393;-81
2021/01/23 06:06:09;;;;;;;74.87;41.53;;;154.10;2201.60;;;;;;4936830;29;20023;-81
2021/01/23 06:08:44;;;;;;;80.93;48.03;;;154.10;2201.60;;;;;;4939924;29;20116;-82
2021/01/23 06:11:19;;;;;;;258.23;146.13;;;154.10;2201.60;;;;;;4938779;29;20395;-82
2021/01/23 06:13:48;;;;;;;112.47;69.63;;;154.20;2176.00;;;;;;4938863;29;20499;-81
2021/01/23 06:16:32;;;;;;;101.47;62.20;;;154.10;2201.60;;;;;;4938356;29;20081;-82
2021/01/23 06:19:04;;;;;;;99.47;60.87;;;154.00;2227.20;;;;;;4950663;28;20035;-82
2021/01/23 06:21:45;;;;;;;106.47;63.17;;;154.30;2201.60;;;;;;4953128;29;20046;-82
2021/01/23 06:24:17;;;;;;;107.63;60.87;;;154.10;2201.60;;;;;;4952786;28;20062;-82
2021/01/23 06:26:55;;;;;;;121.85;73.22;;;154.10;2201.60;;;;;;4958177;28;20028;-83
2021/01/23 06:29:37;;;;;;;144.80;79.90;;;154.10;2201.60;;;;;;4956169;28;20159;-82
2021/01/23 06:32:11;;;;;;;106.73;61.93;;;154.10;2201.60;;;;;;4950752;29;20027;-82
2021/01/23 06:34:44;;;;;;;128.90;69.17;;;154.20;2201.60;;;;;;4951557;29;20043;-82
2021/01/23 06:37:21;;;;;;;136.23;69.30;;;154.30;2176.00;;;;;;4980750;28;20039;-82
2021/01/23 06:39:56;;;;;;;104.57;51.30;;;179.60;2099.20;;;;;;4983588;28;20043;-81
2021/01/23 06:42:22;;;;;;;119.37;58.40;;;179.70;2073.60;;;;;;4971083;28;20027;-83
2021/01/23 06:44:57;;;;;;;106.17;49.27;;;180.00;2048.00;;;;;;4955052;28;20043;-82
2021/01/23 06:47:23;;;;;;;88.23;42.10;;;204.90;2022.40;;;;;;4956975;28;20057;-83
2021/01/23 06:49:49;;;;;;;99.40;45.33;;;205.00;1996.80;;;;;;4954444;28;20078;-82
2021/01/23 06:52:14;;;;;;;104.83;46.80;;;205.10;1996.80;;;;;;4955675;28;20070;-83
2021/01/23 06:54:45;;;;;;;100.30;45.43;;;205.20;1971.20;;;;;;4953350;28;20047;-83
2021/01/23 06:57:11;;;;;;;77.03;38.17;;;205.30;1945.60;;;;;;4973625;28;20511;-83
2021/01/23 06:59:48;;;;;;;55.57;29.43;;;205.50;1945.60;;;;;;4954883;28;20035;-83
2021/01/23 07:02:14;;;;;;;59.23;31.80;;;205.50;1945.60;;;;;;4965819;28;20074;-83
2021/01/23 07:04:53;;;;;;;62.40;34.87;;;205.50;1920.00;;;;;;4965740;28;20126;-82
2021/01/23 07:07:19;;;;;;;83.77;47.17;;;205.70;1894.40;;;;;;4942515;29;20070;-82
2021/01/23 07:09:46;;;;;;;52.63;31.93;;;230.40;1920.00;;;;;;4937594;29;20521;-82
2021/01/23 07:12:13;;;;;;;51.13;31.53;;;230.50;1894.40;;;;;;4962157;28;20057;-82
2021/01/23 07:14:39;;;;;;;68.00;42.33;;;205.70;1894.40;;;;;;4954451;28;20038;-82
2021/01/23 07:17:13;;;;;;;53.70;33.80;;;205.70;1894.40;;;;;;4952385;29;20024;-83
2021/01/23 07:19:40;;;;;;;70.40;40.45;;;205.60;1894.40;;;;;;4954190;28;20042;-82
2021/01/23 07:22:05;;;;;;;59.78;34.95;;;205.60;1920.00;;;;;;4955274;28;20026;-82
2021/01/23 07:24:33;;;;;;;86.97;51.75;;;205.50;1920.00;;;;;;4955188;28;20093;-83
2021/01/23 07:26:59;;;;;;;86.78;48.85;;;205.60;1920.00;;;;;;4972156;28;20023;-83
2021/01/23 07:29:25;;;;;;;263.53;140.73;;;205.40;1945.60;;;;;;4956087;28;20030;-83
2021/01/23 07:31:55;;;;;;;179.45;114.63;;;205.40;1945.60;;;;;;4952203;28;20031;-82
2021/01/23 07:34:21;;;;;;;140.67;107.77;;;205.30;1945.60;;;;;;4935150;29;20039;-82
2021/01/23 07:36:47;;;;;;;168.80;114.38;;;205.30;1971.20;;;;;;4970136;28;20042;-82
2021/01/23 07:39:18;;;;;;;519.45;382.63;;;205.20;1971.20;;;;;;4968985;28;20074;-84
2021/01/23 07:41:51;;;;;;;323.42;222.73;;;205.10;1971.20;;;;;;4954788;28;20026;-83
2021/01/23 07:44:18;;;;;;;144.45;98.60;;;205.10;1996.80;;;;;;4971569;28;20042;-85
2021/01/23 07:46:46;;;;;;;134.32;82.50;;;205.20;1996.80;;;;;;4956566;28;20031;-82
2021/01/23 07:49:26;;;;;;;103.10;67.05;;;205.20;1996.80;;;;;;4970561;28;20039;-81
2021/01/23 07:52:06;;;;;;;137.77;82.72;;;205.20;2022.40;;;;;;4967935;28;20129;-81
2021/01/23 07:54:32;;;;;;;118.13;71.78;;;205.30;2022.40;;;;;;4954024;28;20512;-80
2021/01/23 07:56:58;;;;;;;168.90;100.13;;;205.70;2048.00;;;;;;4946231;29;20023;-81
2021/01/23 07:59:47;;;;;;;157.88;94.55;;;230.60;1894.40;;;;;;4936905;29;20042;-79
2021/01/23 08:02:13;;;;;;;162.38;105.68;;;230.40;1920.00;;;;;;4960185;28;20046;-83
2021/01/23 08:04:40;;;;;;;183.57;119.17;;;205.60;1945.60;;;;;;4960063;28;20457;-85
2021/01/23 08:07:17;;;;;;;186.43;127.15;;;205.40;1971.20;;;;;;4970981;28;20058;-83
2021/01/23 08:09:44;;;;;;;173.93;118.68;;;205.40;1996.80;;;;;;4943189;29;20031;-84
2021/01/23 08:12:19;;;;;;;162.52;109.28;;;205.40;1996.80;;;;;;4941873;29;20142;-82
2021/01/23 08:14:56;;;;;;;175.90;118.32;;;205.40;1996.80;;;;;;4943064;29;20043;-83
2021/01/23 08:17:38;;;;;;;188.98;130.55;;;205.30;1996.80;;;;;;4945488;28;20035;-84
2021/01/23 08:20:05;;;;;;;277.00;174.57;;;205.30;2022.40;;;;;;4953461;29;20082;-83
2021/01/23 08:22:31;;;;;;;236.85;158.73;;;205.30;1996.80;;;;;;4945597;29;20031;-83
2021/01/23 08:24:57;;;;;;;298.17;197.60;;;205.30;2022.40;;;;;;4953563;28;20039;-83
2021/01/23 08:27:23;;;;;;;249.73;172.47;;;205.30;2022.40;;;;;;4988168;28;20505;-85
2021/01/23 08:29:49;;;;;;;282.52;190.60;;;205.30;2048.00;;;;;;4979803;28;20443;-84
2021/01/23 08:32:15;;;;;;;274.60;161.93;;;205.30;2022.40;;;;;;4959767;28;20049;-83
2021/01/23 08:34:43;;;;;;;217.60;139.37;;;205.30;2022.40;;;;;;4960326;29;20039;-87
2021/01/23 08:37:09;;;;;;;210.67;133.77;;;205.30;1996.80;;;;;;4960649;28;20035;-83
2021/01/23 08:40:01;;;;;;;178.60;114.00;;;205.30;2022.40;;;;;;4956488;28;20031;-84
2021/01/23 08:42:27;;;;;;;201.50;127.43;;;205.40;1996.80;;;;;;4959917;28;20504;-84
2021/01/23 08:44:53;;;;;;;133.60;81.47;;;205.40;2022.40;;;;;;4964325;28;20026;-85
2021/01/23 08:47:19;;;;;;;65.10;41.93;;;205.40;1996.80;;;;;;4961240;28;20468;-87
2021/01/23 08:49:44;;;;;;;63.57;39.93;;;205.60;1945.60;;;;;;4960741;28;20094;-86
2021/01/23 08:52:10;;;;;;;159.23;98.30;;;205.60;1971.20;;;;;;4963990;28;20416;-86
2021/01/23 08:54:36;;;;;;;224.70;142.77;;;205.60;1971.20;;;;;;4964314;28;20042;-84
2021/01/23 08:57:02;;;;;;;246.10;154.50;;;205.60;1971.20;;;;;;4964440;28;20035;-87
2021/01/23 08:59:27;;;;;;;394.40;238.30;;;205.60;1971.20;;;;;;4964179;28;20045;-85
2021/01/23 09:01:54;;;;;;;414.52;254.57;;;205.60;1996.80;;;;;;4962598;28;20031;-84
2021/01/23 09:04:20;;;;;;;248.57;153.23;;;205.50;1996.80;;;;;;4977487;28;20050;-88
2021/01/23 09:06:45;;;;;;;155.53;97.90;;;205.60;1971.20;;;;;;4963565;28;20035;-87
2021/01/23 09:09:13;;;;;;;186.67;110.80;;;205.70;1945.60;;;;;;4964117;28;20436;-85
2021/01/23 09:11:39;;;;;;;322.27;204.47;;;230.40;1971.20;;;;;;4980008;28;20023;-85
2021/01/23 09:14:06;;;;;;;360.87;227.77;;;230.40;1971.20;;;;;;4959331;28;20035;-87
2021/01/23 09:16:32;;;;;;;433.37;275.43;;;230.40;1971.20;;;;;;4977088;28;20026;-84
2021/01/23 09:18:58;;;;;;;390.08;253.93;;;230.40;1996.80;;;;;;4961018;28;20027;-84
2021/01/23 09:21:24;;;;;;;446.67;286.07;;;230.40;1996.80;;;;;;4960454;28;20042;-85
2021/01/23 09:23:50;;;;;;;270.70;180.93;;;230.50;2022.40;;;;;;4947032;28;20037;-89
2021/01/23 09:26:16;;;;;;;236.55;149.93;;;230.40;1971.20;;;;;;4959503;28;20031;-85
2021/01/23 09:28:41;;;;;;;238.48;152.43;;;230.60;1996.80;;;;;;4960115;28;20365;-85
2021/01/23 09:31:07;;;;;;;247.98;149.13;;;230.60;1945.60;;;;;;4958654;28;20035;-87
2021/01/23 09:33:33;;;;;;;237.18;150.02;;;230.60;1971.20;;;;;;4959138;28;20388;-84
2021/01/23 09:35:59;;;;;;;206.75;124.60;;;230.70;1945.60;;;;;;4957940;28;20035;-86
2021/01/23 09:38:25;;;;;;;120.20;76.03;;;230.80;1920.00;;;;;;4958825;28;20052;-86
2021/01/23 09:40:51;;;;;;;171.10;100.60;;;230.80;1920.00;;;;;;4958693;28;20026;-83
2021/01/23 09:43:17;;;;;;;129.15;80.75;;;230.90;1920.00;;;;;;4958767;28;20089;-86
2021/01/23 09:45:42;;;;;;;114.63;73.43;;;231.00;1920.00;;;;;;4959116;28;20030;-84
2021/01/23 09:48:08;;;;;;;143.90;91.60;;;231.00;1868.80;;;;;;4956453;29;20118;-84
2021/01/23 09:50:34;;;;;;;143.93;97.85;;;231.10;1894.40;;;;;;4956088;28;20050;-81
2021/01/23 09:53:00;;;;;;;150.55;100.20;;;231.10;1868.80;;;;;;4956855;28;20507;-81
2021/01/23 09:55:25;;;;;;;174.95;105.32;;;231.10;1894.40;;;;;;4959077;28;20061;-82
2021/01/23 09:57:51;;;;;;;102.25;64.57;;;231.10;1868.80;;;;;;4958102;28;20035;-81
2021/01/23 10:00:18;;;;;;;85.25;51.60;;;231.20;1868.80;;;;;;4974242;28;20054;-81
2021/01/23 10:02:44;;;;;;;89.85;51.30;;;231.20;1868.80;;;;;;4969900;28;20046;-83
2021/01/23 10:05:10;;;;;;;55.13;34.47;;;231.30;1843.20;;;;;;4955549;29;20060;-83
2021/01/23 10:07:36;;;;;;;50.85;32.88;;;256.00;1817.60;;;;;;4963013;28;20039;-84
2021/01/23 10:10:04;;;;;;;64.13;36.42;;;256.00;1843.20;;;;;;4952795;29;20051;-83
2021/01/23 10:12:31;;;;;;;45.13;27.10;;;256.00;1817.60;;;;;;4940002;29;20038;-83
2021/01/23 10:14:57;;;;;;;64.45;34.72;;;256.10;1843.20;;;;;;4950785;28;20054;-83
2021/01/23 10:17:23;;;;;;;81.75;43.05;;;256.10;1843.20;;;;;;4974645;28;20114;-82
2021/01/23 10:19:49;;;;;;;110.75;59.63;;;256.20;1817.60;;;;;;4959253;28;20137;-83
2021/01/23 10:22:16;;;;;;;142.88;76.82;;;256.20;1792.00;;;;;;4974530;28;20041;-84
2021/01/23 10:24:42;;;;;;;263.58;128.63;;;256.30;1792.00;;;;;;4974942;28;20031;-83
2021/01/23 10:27:08;;;;;;;137.13;75.05;;;256.30;1817.60;;;;;;4972741;28;20109;-85
2021/01/23 10:29:34;;;;;;;164.75;91.93;;;256.30;1817.60;;;;;;4957139;28;20038;-84
2021/01/23 10:32:00;;;;;;;66.25;43.50;;;256.40;1766.40;;;;;;4958863;28;20031;-84
2021/01/23 10:34:26;;;;;;;145.27;97.95;;;256.40;1766.40;;;;;;4951579;28;20054;-84
2021/01/23 10:36:52;;;;;;;277.05;173.98;;;256.40;1792.00;;;;;;4942458;29;20031;-82
2021/01/23 10:39:17;;;;;;;173.70;117.00;;;256.40;1792.00;;;;;;4941866;28;20039;-82
2021/01/23 10:41:43;;;;;;;248.52;169.27;;;256.50;1792.00;;;;;;4958587;28;20093;-82
2021/01/23 10:44:10;;;;;;;317.00;203.15;;;256.70;1792.00;;;;;;4956287;28;20078;-83
2021/01/23 10:46:36;;;;;;;191.27;127.88;;;256.60;1792.00;;;;;;4958592;28;20027;-83
2021/01/23 10:49:06;;;;;;;137.15;93.10;;;256.70;1792.00;;;;;;4958877;28;20495;-82
2021/01/23 10:51:31;;;;;;;127.55;85.40;;;281.60;1817.60;;;;;;4958334;28;20054;-82
2021/01/23 10:53:57;;;;;;;148.32;100.80;;;281.80;1792.00;;;;;;4958644;28;20050;-81
2021/01/23 10:56:23;;;;;;;314.38;176.25;;;281.70;1766.40;;;;;;4975906;28;20026;-83
2021/01/23 10:58:49;;;;;;;129.18;79.32;;;281.80;1766.40;;;;;;4958630;28;20031;-82
2021/01/23 11:01:14;;;;;;;119.93;76.10;;;281.90;1740.80;;;;;;4957634;28;20601;-82
2021/01/23 11:03:40;;;;;;;148.27;96.10;;;282.20;1740.80;;;;;;4958129;28;20031;-83
2021/01/23 11:06:06;;;;;;;141.60;94.60;;;282.30;1766.40;;;;;;4975246;28;20062;-82
2021/01/23 11:08:33;;;;;;;116.78;73.10;;;282.50;1766.40;;;;;;4957164;28;20038;-83
2021/01/23 11:10:58;;;;;;;102.20;61.83;;;282.50;1715.20;;;;;;4958607;28;20094;-83
2021/01/23 11:13:24;;;;;;;92.45;57.50;;;307.20;1766.40;;;;;;4957371;28;20034;-83
2021/01/23 11:15:50;;;;;;;81.05;53.13;;;307.30;1740.80;;;;;;4948914;28;20091;-82
2021/01/23 11:18:16;;;;;;;74.45;51.58;;;307.40;1689.60;;;;;;4952020;28;20042;-82
2021/01/23 11:20:41;;;;;;;83.50;55.92;;;307.50;1689.60;;;;;;4952039;28;20035;-84
2021/01/23 11:23:07;;;;;;;83.63;58.15;;;307.60;1689.60;;;;;;4957011;28;20046;-83
2021/01/23 11:25:32;;;;;;;101.90;68.90;;;307.60;1689.60;;;;;;4957560;28;20041;-82
2021/01/23 11:27:58;;;;;;;103.28;71.03;;;307.70;1689.60;;;;;;4953870;29;20031;-82
2021/01/23 11:30:25;;;;;;;96.38;65.63;;;307.80;1689.60;;;;;;4938567;29;20034;-83
2021/01/23 11:32:51;;;;;;;76.70;48.85;;;307.80;1689.60;;;;;;4940109;28;20145;-82
2021/01/23 11:35:17;;;;;;;65.70;38.28;;;307.90;1689.60;;;;;;4969145;28;20049;-83
2021/01/23 11:37:43;;;;;;;48.47;32.42;;;308.10;1689.60;;;;;;4954859;28;20035;-86
2021/01/23 11:40:09;;;;;;;41.63;26.20;;;332.80;1664.00;;;;;;4954248;28;20182;-83
2021/01/23 11:42:35;;;;;;;36.05;20.10;;;332.80;1689.60;;;;;;4964709;28;20465;-83
2021/01/23 11:45:04;;;;;;;32.55;19.60;;;332.90;1664.00;;;;;;4953044;28;20228;-84
2021/01/23 11:47:29;;;;;;;27.60;16.92;;;332.90;1664.00;;;;;;4954886;28;20043;-83
2021/01/23 11:49:55;;;;;;;24.38;13.95;;;333.00;1612.80;;;;;;4957566;28;20477;-83
2021/01/23 11:52:21;;;;;;;22.45;14.73;;;333.00;1612.80;;;;;;4974896;28;20388;-85
2021/01/23 11:54:47;;;;;;;24.92;13.98;;;333.10;1612.80;;;;;;4975036;28;20049;-85
2021/01/23 11:57:13;;;;;;;30.33;16.77;;;333.20;1612.80;;;;;;4955676;28;20095;-84
2021/01/23 11:59:40;;;;;;;47.70;24.67;;;333.30;1638.40;;;;;;4957520;28;20101;-85
2021/01/23 12:02:06;;;;;;;44.00;23.45;;;333.40;1638.40;;;;;;4958085;28;20104;-85